sensor_id;sensor_type;location;lat;lon;timestamp;P1;durP1;ratioP1;P2;durP2;ratioP2
56726;SDS011;42609;52.700;6.236;2023-04-03T00:01:08;2.65;;;1.20;;
56726;SDS011;42609;52.700;6.236;2023-04-03T00:03:34;3.63;;;1.10;;
56726;SDS011;42609;52.700;6.236;2023-04-03T00:06:01;2.95;;;1.23;;
56726;SDS011;42609;52.700;6.236;2023-04-03T00:08:28;3.47;;;1.30;;
56726;SDS011;42609;52.700;6.236;2023-04-03T00:10:55;4.63;;;1.20;;
56726;SDS011;42609;52.700;6.236;2023-04-03T00:13:21;3.45;;;1.20;;
56726;SDS011;42609;52.700;6.236;2023-04-03T00:15:47;3.70;;;1.10;;
56726;SDS011;42609;52.700;6.236;2023-04-03T00:18:13;5.82;;;1.20;;
56726;SDS011;42609;52.700;6.236;2023-04-03T00:20:38;3.60;;;1.05;;
56726;SDS011;42609;52.700;6.236;2023-04-03T00:23:04;3.83;;;1.50;;
56726;SDS011;42609;52.700;6.236;2023-04-03T00:25:30;3.78;;;1.20;;
56726;SDS011;42609;52.700;6.236;2023-04-03T00:27:55;3.53;;;1.08;;
56726;SDS011;42609;52.700;6.236;2023-04-03T00:30:21;3.55;;;1.30;;
56726;SDS011;42609;52.700;6.236;2023-04-03T00:32:49;3.20;;;0.95;;
56726;SDS011;42609;52.700;6.236;2023-04-03T00:35:16;2.72;;;1.10;;
56726;SDS011;42609;52.700;6.236;2023-04-03T00:37:42;4.35;;;1.20;;
56726;SDS011;42609;52.700;6.236;2023-04-03T00:40:08;3.10;;;0.95;;
56726;SDS011;42609;52.700;6.236;2023-04-03T00:42:38;3.63;;;1.00;;
56726;SDS011;42609;52.700;6.236;2023-04-03T00:47:31;3.15;;;1.00;;
56726;SDS011;42609;52.700;6.236;2023-04-03T00:49:57;5.97;;;1.55;;
56726;SDS011;42609;52.700;6.236;2023-04-03T00:52:25;4.00;;;1.17;;
56726;SDS011;42609;52.700;6.236;2023-04-03T00:54:54;4.80;;;1.20;;
56726;SDS011;42609;52.700;6.236;2023-04-03T00:57:26;2.40;;;1.10;;
56726;SDS011;42609;52.700;6.236;2023-04-03T00:59:54;2.97;;;1.20;;
56726;SDS011;42609;52.700;6.236;2023-04-03T01:02:24;3.17;;;1.10;;
56726;SDS011;42609;52.700;6.236;2023-04-03T01:04:51;5.32;;;1.38;;
56726;SDS011;42609;52.700;6.236;2023-04-03T01:07:18;2.42;;;1.05;;
56726;SDS011;42609;52.700;6.236;2023-04-03T01:09:47;5.20;;;1.30;;
56726;SDS011;42609;52.700;6.236;2023-04-03T01:12:23;2.95;;;1.08;;
56726;SDS011;42609;52.700;6.236;2023-04-03T01:14:56;4.53;;;1.30;;
56726;SDS011;42609;52.700;6.236;2023-04-03T01:17:28;3.38;;;1.10;;
56726;SDS011;42609;52.700;6.236;2023-04-03T01:20:01;3.63;;;1.00;;
56726;SDS011;42609;52.700;6.236;2023-04-03T01:22:35;6.20;;;1.35;;
56726;SDS011;42609;52.700;6.236;2023-04-03T01:25:13;2.88;;;1.17;;
56726;SDS011;42609;52.700;6.236;2023-04-03T01:27:39;4.28;;;1.30;;
56726;SDS011;42609;52.700;6.236;2023-04-03T01:30:10;3.70;;;1.20;;
56726;SDS011;42609;52.700;6.236;2023-04-03T01:32:40;3.55;;;1.30;;
56726;SDS011;42609;52.700;6.236;2023-04-03T01:35:07;4.70;;;1.63;;
56726;SDS011;42609;52.700;6.236;2023-04-03T01:37:34;3.40;;;1.20;;
56726;SDS011;42609;52.700;6.236;2023-04-03T01:39:59;5.00;;;1.50;;
56726;SDS011;42609;52.700;6.236;2023-04-03T01:42:25;3.08;;;1.17;;
56726;SDS011;42609;52.700;6.236;2023-04-03T01:44:50;4.93;;;1.30;;
56726;SDS011;42609;52.700;6.236;2023-04-03T01:47:16;5.10;;;1.35;;
56726;SDS011;42609;52.700;6.236;2023-04-03T01:49:42;3.50;;;1.40;;
56726;SDS011;42609;52.700;6.236;2023-04-03T01:52:07;4.63;;;1.40;;
56726;SDS011;42609;52.700;6.236;2023-04-03T01:54:33;3.72;;;1.55;;
56726;SDS011;42609;52.700;6.236;2023-04-03T01:56:59;3.03;;;1.25;;
56726;SDS011;42609;52.700;6.236;2023-04-03T01:59:28;3.60;;;1.17;;
56726;SDS011;42609;52.700;6.236;2023-04-03T02:01:53;5.47;;;1.48;;
56726;SDS011;42609;52.700;6.236;2023-04-03T02:04:19;3.78;;;1.30;;
56726;SDS011;42609;52.700;6.236;2023-04-03T02:06:45;5.03;;;1.38;;
56726;SDS011;42609;52.700;6.236;2023-04-03T02:09:10;3.00;;;1.27;;
56726;SDS011;42609;52.700;6.236;2023-04-03T02:11:36;4.05;;;1.52;;
56726;SDS011;42609;52.700;6.236;2023-04-03T02:14:01;4.13;;;1.33;;
56726;SDS011;42609;52.700;6.236;2023-04-03T02:16:28;2.97;;;1.30;;
56726;SDS011;42609;52.700;6.236;2023-04-03T02:18:54;2.50;;;1.17;;
56726;SDS011;42609;52.700;6.236;2023-04-03T02:21:19;6.88;;;1.48;;
56726;SDS011;42609;52.700;6.236;2023-04-03T02:23:45;7.13;;;1.88;;
56726;SDS011;42609;52.700;6.236;2023-04-03T02:26:12;4.45;;;1.45;;
56726;SDS011;42609;52.700;6.236;2023-04-03T02:28:38;5.13;;;1.45;;
56726;SDS011;42609;52.700;6.236;2023-04-03T02:31:06;5.80;;;1.50;;
56726;SDS011;42609;52.700;6.236;2023-04-03T02:33:32;3.70;;;1.50;;
56726;SDS011;42609;52.700;6.236;2023-04-03T02:35:58;4.78;;;1.35;;
56726;SDS011;42609;52.700;6.236;2023-04-03T02:38:25;3.00;;;1.20;;
56726;SDS011;42609;52.700;6.236;2023-04-03T02:40:51;5.85;;;1.58;;
56726;SDS011;42609;52.700;6.236;2023-04-03T02:43:17;4.18;;;1.60;;
56726;SDS011;42609;52.700;6.236;2023-04-03T02:45:43;6.38;;;2.05;;
56726;SDS011;42609;52.700;6.236;2023-04-03T02:48:08;5.25;;;1.40;;
56726;SDS011;42609;52.700;6.236;2023-04-03T02:50:34;3.95;;;1.75;;
56726;SDS011;42609;52.700;6.236;2023-04-03T02:53:00;6.15;;;1.90;;
56726;SDS011;42609;52.700;6.236;2023-04-03T02:55:25;4.30;;;1.65;;
56726;SDS011;42609;52.700;6.236;2023-04-03T02:57:51;4.63;;;1.45;;
56726;SDS011;42609;52.700;6.236;2023-04-03T03:00:17;5.03;;;1.70;;
56726;SDS011;42609;52.700;6.236;2023-04-03T03:02:42;4.65;;;1.67;;
56726;SDS011;42609;52.700;6.236;2023-04-03T03:05:08;6.47;;;1.95;;
56726;SDS011;42609;52.700;6.236;2023-04-03T03:07:34;4.32;;;1.58;;
56726;SDS011;42609;52.700;6.236;2023-04-03T03:09:59;4.82;;;1.83;;
56726;SDS011;42609;52.700;6.236;2023-04-03T03:12:25;4.93;;;1.80;;
56726;SDS011;42609;52.700;6.236;2023-04-03T03:14:51;5.97;;;1.85;;
56726;SDS011;42609;52.700;6.236;2023-04-03T03:17:16;5.28;;;1.45;;
56726;SDS011;42609;52.700;6.236;2023-04-03T03:19:42;5.07;;;1.65;;
56726;SDS011;42609;52.700;6.236;2023-04-03T03:22:08;5.75;;;1.73;;
56726;SDS011;42609;52.700;6.236;2023-04-03T03:24:34;4.18;;;1.50;;
56726;SDS011;42609;52.700;6.236;2023-04-03T03:27:00;6.65;;;1.60;;
56726;SDS011;42609;52.700;6.236;2023-04-03T03:29:25;4.60;;;1.70;;
56726;SDS011;42609;52.700;6.236;2023-04-03T03:31:51;5.45;;;2.13;;
56726;SDS011;42609;52.700;6.236;2023-04-03T03:34:17;5.90;;;1.77;;
56726;SDS011;42609;52.700;6.236;2023-04-03T03:36:42;7.32;;;2.25;;
56726;SDS011;42609;52.700;6.236;2023-04-03T03:39:08;5.03;;;1.83;;
56726;SDS011;42609;52.700;6.236;2023-04-03T03:41:34;6.28;;;2.00;;
56726;SDS011;42609;52.700;6.236;2023-04-03T03:43:59;6.35;;;2.00;;
56726;SDS011;42609;52.700;6.236;2023-04-03T03:46:25;5.32;;;1.77;;
56726;SDS011;42609;52.700;6.236;2023-04-03T03:48:51;6.43;;;1.60;;
56726;SDS011;42609;52.700;6.236;2023-04-03T03:51:16;7.82;;;1.77;;
56726;SDS011;42609;52.700;6.236;2023-04-03T03:53:42;6.55;;;1.80;;
56726;SDS011;42609;52.700;6.236;2023-04-03T03:56:07;5.18;;;1.73;;
56726;SDS011;42609;52.700;6.236;2023-04-03T03:58:33;4.32;;;1.73;;
56726;SDS011;42609;52.700;6.236;2023-04-03T04:01:02;8.98;;;1.92;;
56726;SDS011;42609;52.700;6.236;2023-04-03T04:03:30;4.60;;;1.95;;
56726;SDS011;42609;52.700;6.236;2023-04-03T04:05:56;6.43;;;1.80;;
56726;SDS011;42609;52.700;6.236;2023-04-03T04:08:21;7.30;;;2.10;;
56726;SDS011;42609;52.700;6.236;2023-04-03T04:10:47;4.70;;;2.10;;
56726;SDS011;42609;52.700;6.236;2023-04-03T04:13:13;5.22;;;1.70;;
56726;SDS011;42609;52.700;6.236;2023-04-03T04:15:38;5.05;;;1.98;;
56726;SDS011;42609;52.700;6.236;2023-04-03T04:18:05;5.60;;;1.83;;
56726;SDS011;42609;52.700;6.236;2023-04-03T04:20:30;4.47;;;1.58;;
56726;SDS011;42609;52.700;6.236;2023-04-03T04:22:56;4.80;;;1.80;;
56726;SDS011;42609;52.700;6.236;2023-04-03T04:25:22;6.00;;;1.80;;
56726;SDS011;42609;52.700;6.236;2023-04-03T04:27:47;5.22;;;1.90;;
56726;SDS011;42609;52.700;6.236;2023-04-03T04:30:13;4.47;;;1.80;;
56726;SDS011;42609;52.700;6.236;2023-04-03T04:32:39;6.13;;;1.90;;
56726;SDS011;42609;52.700;6.236;2023-04-03T04:35:05;5.43;;;1.60;;
56726;SDS011;42609;52.700;6.236;2023-04-03T04:37:31;3.80;;;1.70;;
56726;SDS011;42609;52.700;6.236;2023-04-03T04:39:57;5.82;;;2.25;;
56726;SDS011;42609;52.700;6.236;2023-04-03T04:42:22;7.55;;;1.85;;
56726;SDS011;42609;52.700;6.236;2023-04-03T04:44:48;9.10;;;1.98;;
56726;SDS011;42609;52.700;6.236;2023-04-03T04:47:14;4.13;;;1.50;;
56726;SDS011;42609;52.700;6.236;2023-04-03T04:49:39;8.02;;;1.92;;
56726;SDS011;42609;52.700;6.236;2023-04-03T04:52:05;7.25;;;1.88;;
56726;SDS011;42609;52.700;6.236;2023-04-03T04:54:31;6.55;;;1.80;;
56726;SDS011;42609;52.700;6.236;2023-04-03T04:56:57;6.55;;;1.65;;
56726;SDS011;42609;52.700;6.236;2023-04-03T04:59:22;7.63;;;2.20;;
56726;SDS011;42609;52.700;6.236;2023-04-03T05:01:48;5.32;;;1.98;;
56726;SDS011;42609;52.700;6.236;2023-04-03T05:04:14;5.57;;;1.90;;
56726;SDS011;42609;52.700;6.236;2023-04-03T05:06:40;5.32;;;2.08;;
56726;SDS011;42609;52.700;6.236;2023-04-03T05:09:05;6.80;;;2.55;;
56726;SDS011;42609;52.700;6.236;2023-04-03T05:11:31;7.85;;;2.45;;
56726;SDS011;42609;52.700;6.236;2023-04-03T05:13:57;6.68;;;2.38;;
56726;SDS011;42609;52.700;6.236;2023-04-03T05:16:23;7.90;;;1.95;;
56726;SDS011;42609;52.700;6.236;2023-04-03T05:18:48;6.53;;;1.85;;
56726;SDS011;42609;52.700;6.236;2023-04-03T05:21:14;6.18;;;2.22;;
56726;SDS011;42609;52.700;6.236;2023-04-03T05:23:40;6.15;;;2.30;;
56726;SDS011;42609;52.700;6.236;2023-04-03T05:26:05;7.72;;;2.42;;
56726;SDS011;42609;52.700;6.236;2023-04-03T05:28:31;6.68;;;2.10;;
56726;SDS011;42609;52.700;6.236;2023-04-03T05:30:57;6.95;;;2.08;;
56726;SDS011;42609;52.700;6.236;2023-04-03T05:33:24;7.15;;;2.30;;
56726;SDS011;42609;52.700;6.236;2023-04-03T05:35:51;7.28;;;2.47;;
56726;SDS011;42609;52.700;6.236;2023-04-03T05:38:17;4.53;;;1.90;;
56726;SDS011;42609;52.700;6.236;2023-04-03T05:40:43;7.90;;;2.35;;
56726;SDS011;42609;52.700;6.236;2023-04-03T05:43:09;7.85;;;2.35;;
56726;SDS011;42609;52.700;6.236;2023-04-03T05:45:35;8.02;;;2.63;;
56726;SDS011;42609;52.700;6.236;2023-04-03T05:48:00;6.97;;;2.30;;
56726;SDS011;42609;52.700;6.236;2023-04-03T05:50:27;7.05;;;2.20;;
56726;SDS011;42609;52.700;6.236;2023-04-03T05:52:54;6.53;;;2.03;;
56726;SDS011;42609;52.700;6.236;2023-04-03T05:55:22;5.30;;;2.03;;
56726;SDS011;42609;52.700;6.236;2023-04-03T05:57:47;8.57;;;2.30;;
56726;SDS011;42609;52.700;6.236;2023-04-03T06:00:13;5.45;;;2.03;;
56726;SDS011;42609;52.700;6.236;2023-04-03T06:02:43;5.60;;;2.10;;
56726;SDS011;42609;52.700;6.236;2023-04-03T06:05:09;6.25;;;1.90;;
56726;SDS011;42609;52.700;6.236;2023-04-03T06:07:36;10.18;;;2.25;;
56726;SDS011;42609;52.700;6.236;2023-04-03T06:10:02;5.97;;;2.20;;
56726;SDS011;42609;52.700;6.236;2023-04-03T06:12:29;7.47;;;2.17;;
56726;SDS011;42609;52.700;6.236;2023-04-03T06:15:00;7.93;;;2.25;;
56726;SDS011;42609;52.700;6.236;2023-04-03T06:17:27;6.28;;;2.50;;
56726;SDS011;42609;52.700;6.236;2023-04-03T06:19:52;8.00;;;2.38;;
56726;SDS011;42609;52.700;6.236;2023-04-03T06:22:18;6.43;;;1.88;;
56726;SDS011;42609;52.700;6.236;2023-04-03T06:24:43;7.35;;;2.03;;
56726;SDS011;42609;52.700;6.236;2023-04-03T06:27:09;6.93;;;1.90;;
56726;SDS011;42609;52.700;6.236;2023-04-03T06:29:36;6.93;;;2.15;;
56726;SDS011;42609;52.700;6.236;2023-04-03T06:32:02;5.32;;;1.92;;
56726;SDS011;42609;52.700;6.236;2023-04-03T06:34:27;6.93;;;2.35;;
56726;SDS011;42609;52.700;6.236;2023-04-03T06:36:53;6.13;;;1.90;;
56726;SDS011;42609;52.700;6.236;2023-04-03T06:39:19;7.00;;;2.10;;
56726;SDS011;42609;52.700;6.236;2023-04-03T06:41:47;6.78;;;2.22;;
56726;SDS011;42609;52.700;6.236;2023-04-03T06:44:13;5.65;;;2.05;;
56726;SDS011;42609;52.700;6.236;2023-04-03T06:46:41;7.53;;;2.17;;
56726;SDS011;42609;52.700;6.236;2023-04-03T06:49:07;4.65;;;1.75;;
56726;SDS011;42609;52.700;6.236;2023-04-03T06:51:33;6.53;;;1.95;;
56726;SDS011;42609;52.700;6.236;2023-04-03T06:53:59;6.65;;;1.90;;
56726;SDS011;42609;52.700;6.236;2023-04-03T06:56:26;6.20;;;2.13;;
56726;SDS011;42609;52.700;6.236;2023-04-03T06:58:52;8.05;;;2.35;;
56726;SDS011;42609;52.700;6.236;2023-04-03T07:01:23;6.63;;;1.80;;
56726;SDS011;42609;52.700;6.236;2023-04-03T07:03:51;5.63;;;1.63;;
56726;SDS011;42609;52.700;6.236;2023-04-03T07:06:17;6.25;;;1.80;;
56726;SDS011;42609;52.700;6.236;2023-04-03T07:08:43;9.60;;;2.05;;
56726;SDS011;42609;52.700;6.236;2023-04-03T07:11:10;7.05;;;1.90;;
56726;SDS011;42609;52.700;6.236;2023-04-03T07:13:36;8.02;;;2.00;;
56726;SDS011;42609;52.700;6.236;2023-04-03T07:16:02;5.53;;;1.40;;
56726;SDS011;42609;52.700;6.236;2023-04-03T07:18:30;4.65;;;1.90;;
56726;SDS011;42609;52.700;6.236;2023-04-03T07:20:56;6.97;;;2.10;;
56726;SDS011;42609;52.700;6.236;2023-04-03T07:23:22;5.60;;;1.67;;
56726;SDS011;42609;52.700;6.236;2023-04-03T07:25:49;6.10;;;1.75;;
56726;SDS011;42609;52.700;6.236;2023-04-03T07:28:16;4.10;;;1.50;;
56726;SDS011;42609;52.700;6.236;2023-04-03T07:33:13;3.15;;;1.23;;
56726;SDS011;42609;52.700;6.236;2023-04-03T07:35:40;6.80;;;1.63;;
56726;SDS011;42609;52.700;6.236;2023-04-03T07:38:07;4.00;;;1.20;;
56726;SDS011;42609;52.700;6.236;2023-04-03T07:40:33;5.43;;;1.52;;
56726;SDS011;42609;52.700;6.236;2023-04-03T07:42:59;4.45;;;1.50;;
56726;SDS011;42609;52.700;6.236;2023-04-03T07:45:25;4.07;;;1.33;;
56726;SDS011;42609;52.700;6.236;2023-04-03T07:47:51;4.07;;;1.52;;
56726;SDS011;42609;52.700;6.236;2023-04-03T07:50:17;4.97;;;1.50;;
56726;SDS011;42609;52.700;6.236;2023-04-03T07:52:44;3.53;;;1.23;;
56726;SDS011;42609;52.700;6.236;2023-04-03T07:55:10;4.63;;;1.48;;
56726;SDS011;42609;52.700;6.236;2023-04-03T07:57:37;6.15;;;1.52;;
56726;SDS011;42609;52.700;6.236;2023-04-03T08:00:03;5.72;;;1.90;;
56726;SDS011;42609;52.700;6.236;2023-04-03T08:02:29;6.45;;;1.38;;
56726;SDS011;42609;52.700;6.236;2023-04-03T08:04:56;4.40;;;1.50;;
56726;SDS011;42609;52.700;6.236;2023-04-03T08:07:23;5.38;;;1.63;;
56726;SDS011;42609;52.700;6.236;2023-04-03T08:09:48;5.53;;;1.33;;
56726;SDS011;42609;52.700;6.236;2023-04-03T08:12:14;6.13;;;1.40;;
56726;SDS011;42609;52.700;6.236;2023-04-03T08:14:40;7.47;;;1.30;;
56726;SDS011;42609;52.700;6.236;2023-04-03T08:17:06;4.13;;;1.30;;
56726;SDS011;42609;52.700;6.236;2023-04-03T08:19:36;4.95;;;1.50;;
56726;SDS011;42609;52.700;6.236;2023-04-03T08:22:02;4.05;;;1.30;;
56726;SDS011;42609;52.700;6.236;2023-04-03T08:24:28;4.68;;;1.55;;
56726;SDS011;42609;52.700;6.236;2023-04-03T08:26:54;4.53;;;1.20;;
56726;SDS011;42609;52.700;6.236;2023-04-03T08:29:20;4.80;;;1.23;;
56726;SDS011;42609;52.700;6.236;2023-04-03T08:31:46;5.43;;;1.38;;
56726;SDS011;42609;52.700;6.236;2023-04-03T08:34:12;2.90;;;1.38;;
56726;SDS011;42609;52.700;6.236;2023-04-03T08:36:39;5.13;;;1.70;;
56726;SDS011;42609;52.700;6.236;2023-04-03T08:39:05;5.30;;;1.60;;
56726;SDS011;42609;52.700;6.236;2023-04-03T08:49:24;3.92;;;1.10;;
56726;SDS011;42609;52.700;6.236;2023-04-03T08:51:57;3.15;;;1.10;;
56726;SDS011;42609;52.700;6.236;2023-04-03T08:57:43;2.78;;;0.90;;
56726;SDS011;42609;52.700;6.236;2023-04-03T09:00:19;5.05;;;1.35;;
56726;SDS011;42609;52.700;6.236;2023-04-03T09:02:48;3.55;;;1.50;;
56726;SDS011;42609;52.700;6.236;2023-04-03T09:05:20;3.55;;;1.15;;
56726;SDS011;42609;52.700;6.236;2023-04-03T09:10:48;4.63;;;1.05;;
56726;SDS011;42609;52.700;6.236;2023-04-03T09:13:21;3.17;;;0.80;;
56726;SDS011;42609;52.700;6.236;2023-04-03T09:16:17;2.40;;;1.00;;
56726;SDS011;42609;52.700;6.236;2023-04-03T09:18:48;3.38;;;1.00;;
56726;SDS011;42609;52.700;6.236;2023-04-03T09:21:36;2.40;;;0.85;;
56726;SDS011;42609;52.700;6.236;2023-04-03T09:24:04;5.88;;;1.58;;
56726;SDS011;42609;52.700;6.236;2023-04-03T09:26:34;3.05;;;0.75;;
56726;SDS011;42609;52.700;6.236;2023-04-03T09:29:14;5.30;;;1.05;;
56726;SDS011;42609;52.700;6.236;2023-04-03T09:31:43;2.15;;;0.73;;
56726;SDS011;42609;52.700;6.236;2023-04-03T09:34:15;2.47;;;0.75;;
56726;SDS011;42609;52.700;6.236;2023-04-03T09:36:48;4.95;;;1.25;;
56726;SDS011;42609;52.700;6.236;2023-04-03T09:39:17;6.45;;;1.45;;
56726;SDS011;42609;52.700;6.236;2023-04-03T09:41:54;1.73;;;0.65;;
56726;SDS011;42609;52.700;6.236;2023-04-03T09:44:26;3.63;;;0.90;;
56726;SDS011;42609;52.700;6.236;2023-04-03T09:46:55;2.85;;;0.73;;
56726;SDS011;42609;52.700;6.236;2023-04-03T09:49:21;6.10;;;1.00;;
56726;SDS011;42609;52.700;6.236;2023-04-03T09:51:47;1.77;;;0.77;;
56726;SDS011;42609;52.700;6.236;2023-04-03T09:54:32;1.60;;;0.60;;
56726;SDS011;42609;52.700;6.236;2023-04-03T09:57:09;2.85;;;0.63;;
56726;SDS011;42609;52.700;6.236;2023-04-03T09:59:38;2.53;;;0.98;;
56726;SDS011;42609;52.700;6.236;2023-04-03T10:04:48;4.55;;;0.73;;
56726;SDS011;42609;52.700;6.236;2023-04-03T10:09:59;2.70;;;0.90;;
56726;SDS011;42609;52.700;6.236;2023-04-03T10:12:27;3.25;;;0.82;;
56726;SDS011;42609;52.700;6.236;2023-04-03T10:19:58;3.17;;;0.80;;
56726;SDS011;42609;52.700;6.236;2023-04-03T10:23:00;2.05;;;0.70;;
56726;SDS011;42609;52.700;6.236;2023-04-03T10:25:44;2.97;;;0.60;;
56726;SDS011;42609;52.700;6.236;2023-04-03T10:47:18;2.85;;;0.88;;
56726;SDS011;42609;52.700;6.236;2023-04-03T10:55:43;3.13;;;0.80;;
56726;SDS011;42609;52.700;6.236;2023-04-03T10:57:51;1.83;;;0.60;;
56726;SDS011;42609;52.700;6.236;2023-04-03T11:00:41;2.67;;;0.80;;
56726;SDS011;42609;52.700;6.236;2023-04-03T11:03:17;2.30;;;0.70;;
56726;SDS011;42609;52.700;6.236;2023-04-03T11:06:01;4.28;;;0.70;;
56726;SDS011;42609;52.700;6.236;2023-04-03T11:11:40;2.15;;;0.73;;
56726;SDS011;42609;52.700;6.236;2023-04-03T11:17:11;1.58;;;0.68;;
56726;SDS011;42609;52.700;6.236;2023-04-03T11:24:56;2.47;;;0.75;;
56726;SDS011;42609;52.700;6.236;2023-04-03T11:27:23;2.03;;;0.82;;
56726;SDS011;42609;52.700;6.236;2023-04-03T11:29:50;2.70;;;0.90;;
56726;SDS011;42609;52.700;6.236;2023-04-03T11:35:18;4.18;;;1.20;;
56726;SDS011;42609;52.700;6.236;2023-04-03T11:37:45;3.72;;;0.88;;
56726;SDS011;42609;52.700;6.236;2023-04-03T11:42:46;2.70;;;1.10;;
56726;SDS011;42609;52.700;6.236;2023-04-03T11:45:25;5.18;;;1.00;;
56726;SDS011;42609;52.700;6.236;2023-04-03T11:51:00;1.90;;;0.82;;
56726;SDS011;42609;52.700;6.236;2023-04-03T11:53:41;2.47;;;0.88;;
56726;SDS011;42609;52.700;6.236;2023-04-03T12:04:12;3.65;;;1.02;;
56726;SDS011;42609;52.700;6.236;2023-04-03T12:09:21;2.83;;;1.00;;
56726;SDS011;42609;52.700;6.236;2023-04-03T12:11:58;6.15;;;1.00;;
56726;SDS011;42609;52.700;6.236;2023-04-03T12:14:25;2.63;;;0.80;;
56726;SDS011;42609;52.700;6.236;2023-04-03T12:16:53;3.58;;;1.00;;
56726;SDS011;42609;52.700;6.236;2023-04-03T12:24:46;2.35;;;0.80;;
56726;SDS011;42609;52.700;6.236;2023-04-03T12:27:20;2.55;;;0.90;;
56726;SDS011;42609;52.700;6.236;2023-04-03T12:30:05;2.50;;;0.80;;
56726;SDS011;42609;52.700;6.236;2023-04-03T12:46:43;2.25;;;0.80;;
56726;SDS011;42609;52.700;6.236;2023-04-03T12:49:14;3.60;;;0.90;;
56726;SDS011;42609;52.700;6.236;2023-04-03T12:51:49;4.28;;;1.23;;
56726;SDS011;42609;52.700;6.236;2023-04-03T12:54:32;3.30;;;1.05;;
56726;SDS011;42609;52.700;6.236;2023-04-03T12:59:57;3.25;;;1.10;;
56726;SDS011;42609;52.700;6.236;2023-04-03T13:02:30;2.72;;;0.90;;
56726;SDS011;42609;52.700;6.236;2023-04-03T13:04:59;3.38;;;1.10;;
56726;SDS011;42609;52.700;6.236;2023-04-03T13:07:32;2.42;;;0.75;;
56726;SDS011;42609;52.700;6.236;2023-04-03T13:15:19;4.07;;;1.13;;
56726;SDS011;42609;52.700;6.236;2023-04-03T13:18:04;4.13;;;0.95;;
56726;SDS011;42609;52.700;6.236;2023-04-03T13:20:31;2.63;;;0.93;;
56726;SDS011;42609;52.700;6.236;2023-04-03T13:23:04;2.47;;;0.90;;
56726;SDS011;42609;52.700;6.236;2023-04-03T13:25:34;4.40;;;1.20;;
56726;SDS011;42609;52.700;6.236;2023-04-03T13:28:02;2.97;;;1.02;;
56726;SDS011;42609;52.700;6.236;2023-04-03T13:30:31;3.00;;;1.02;;
56726;SDS011;42609;52.700;6.236;2023-04-03T13:33:02;4.20;;;1.20;;
56726;SDS011;42609;52.700;6.236;2023-04-03T13:43:53;2.85;;;1.10;;
56726;SDS011;42609;52.700;6.236;2023-04-03T13:46:22;3.83;;;1.25;;
56726;SDS011;42609;52.700;6.236;2023-04-03T13:48:51;3.88;;;1.00;;
56726;SDS011;42609;52.700;6.236;2023-04-03T13:51:20;4.63;;;1.30;;
56726;SDS011;42609;52.700;6.236;2023-04-03T13:53:54;5.00;;;1.23;;
56726;SDS011;42609;52.700;6.236;2023-04-03T14:01:47;2.65;;;1.10;;
56726;SDS011;42609;52.700;6.236;2023-04-03T14:06:45;4.22;;;1.27;;
56726;SDS011;42609;52.700;6.236;2023-04-03T14:09:12;5.93;;;1.40;;
56726;SDS011;42609;52.700;6.236;2023-04-03T14:11:39;3.85;;;1.30;;
56726;SDS011;42609;52.700;6.236;2023-04-03T14:14:09;4.10;;;1.25;;
56726;SDS011;42609;52.700;6.236;2023-04-03T14:16:43;3.50;;;1.35;;
56726;SDS011;42609;52.700;6.236;2023-04-03T14:19:17;4.70;;;1.40;;
56726;SDS011;42609;52.700;6.236;2023-04-03T14:21:46;4.47;;;1.15;;
56726;SDS011;42609;52.700;6.236;2023-04-03T14:24:12;5.60;;;1.20;;
56726;SDS011;42609;52.700;6.236;2023-04-03T14:26:38;2.78;;;1.35;;
56726;SDS011;42609;52.700;6.236;2023-04-03T14:29:04;3.72;;;1.20;;
56726;SDS011;42609;52.700;6.236;2023-04-03T14:31:29;4.72;;;1.20;;
56726;SDS011;42609;52.700;6.236;2023-04-03T14:33:55;3.33;;;1.17;;
56726;SDS011;42609;52.700;6.236;2023-04-03T14:36:22;4.07;;;1.10;;
56726;SDS011;42609;52.700;6.236;2023-04-03T14:38:50;4.10;;;1.40;;
56726;SDS011;42609;52.700;6.236;2023-04-03T14:41:18;2.60;;;1.20;;
56726;SDS011;42609;52.700;6.236;2023-04-03T14:43:45;3.92;;;1.50;;
56726;SDS011;42609;52.700;6.236;2023-04-03T14:46:16;4.68;;;1.60;;
56726;SDS011;42609;52.700;6.236;2023-04-03T14:48:44;4.18;;;1.42;;
56726;SDS011;42609;52.700;6.236;2023-04-03T14:51:11;4.38;;;1.30;;
56726;SDS011;42609;52.700;6.236;2023-04-03T14:53:37;4.85;;;1.70;;
56726;SDS011;42609;52.700;6.236;2023-04-03T14:56:08;5.13;;;1.42;;
56726;SDS011;42609;52.700;6.236;2023-04-03T14:58:40;4.30;;;1.20;;
56726;SDS011;42609;52.700;6.236;2023-04-03T15:01:06;3.35;;;1.30;;
56726;SDS011;42609;52.700;6.236;2023-04-03T15:03:34;3.75;;;1.38;;
56726;SDS011;42609;52.700;6.236;2023-04-03T15:05:59;3.83;;;1.20;;
56726;SDS011;42609;52.700;6.236;2023-04-03T15:08:25;4.30;;;1.48;;
56726;SDS011;42609;52.700;6.236;2023-04-03T15:10:56;5.47;;;1.40;;
56726;SDS011;42609;52.700;6.236;2023-04-03T15:13:22;2.90;;;1.15;;
56726;SDS011;42609;52.700;6.236;2023-04-03T15:15:49;3.80;;;1.50;;
56726;SDS011;42609;52.700;6.236;2023-04-03T15:18:23;4.93;;;1.60;;
56726;SDS011;42609;52.700;6.236;2023-04-03T15:20:51;3.70;;;1.50;;
56726;SDS011;42609;52.700;6.236;2023-04-03T15:23:18;4.07;;;1.48;;
56726;SDS011;42609;52.700;6.236;2023-04-03T15:25:44;3.92;;;1.40;;
56726;SDS011;42609;52.700;6.236;2023-04-03T15:28:17;3.72;;;1.40;;
56726;SDS011;42609;52.700;6.236;2023-04-03T15:30:47;5.85;;;1.40;;
56726;SDS011;42609;52.700;6.236;2023-04-03T15:33:12;3.92;;;1.45;;
56726;SDS011;42609;52.700;6.236;2023-04-03T15:35:38;4.63;;;1.30;;
56726;SDS011;42609;52.700;6.236;2023-04-03T15:38:04;4.45;;;1.42;;
56726;SDS011;42609;52.700;6.236;2023-04-03T15:40:30;4.82;;;1.63;;
56726;SDS011;42609;52.700;6.236;2023-04-03T15:42:55;2.22;;;1.15;;
56726;SDS011;42609;52.700;6.236;2023-04-03T15:45:21;4.35;;;1.40;;
56726;SDS011;42609;52.700;6.236;2023-04-03T15:47:47;2.67;;;1.25;;
56726;SDS011;42609;52.700;6.236;2023-04-03T15:50:12;4.13;;;1.70;;
56726;SDS011;42609;52.700;6.236;2023-04-03T15:52:38;4.18;;;1.42;;
56726;SDS011;42609;52.700;6.236;2023-04-03T15:55:04;3.25;;;1.30;;
56726;SDS011;42609;52.700;6.236;2023-04-03T15:57:30;3.33;;;1.33;;
56726;SDS011;42609;52.700;6.236;2023-04-03T15:59:56;3.97;;;1.30;;
56726;SDS011;42609;52.700;6.236;2023-04-03T16:02:22;2.92;;;1.50;;
56726;SDS011;42609;52.700;6.236;2023-04-03T16:04:52;4.43;;;1.52;;
56726;SDS011;42609;52.700;6.236;2023-04-03T16:07:19;4.63;;;1.55;;
56726;SDS011;42609;52.700;6.236;2023-04-03T16:09:45;5.40;;;1.63;;
56726;SDS011;42609;52.700;6.236;2023-04-03T16:12:10;4.60;;;1.35;;
56726;SDS011;42609;52.700;6.236;2023-04-03T16:14:36;3.30;;;1.50;;
56726;SDS011;42609;52.700;6.236;2023-04-03T16:17:01;5.63;;;1.45;;
56726;SDS011;42609;52.700;6.236;2023-04-03T16:19:28;3.80;;;1.40;;
56726;SDS011;42609;52.700;6.236;2023-04-03T16:21:54;3.63;;;1.20;;
56726;SDS011;42609;52.700;6.236;2023-04-03T16:24:20;3.30;;;1.30;;
56726;SDS011;42609;52.700;6.236;2023-04-03T16:26:46;3.13;;;1.30;;
56726;SDS011;42609;52.700;6.236;2023-04-03T16:29:12;4.93;;;1.35;;
56726;SDS011;42609;52.700;6.236;2023-04-03T16:31:37;3.47;;;1.17;;
56726;SDS011;42609;52.700;6.236;2023-04-03T16:34:03;5.40;;;1.50;;
56726;SDS011;42609;52.700;6.236;2023-04-03T16:36:29;4.15;;;1.50;;
56726;SDS011;42609;52.700;6.236;2023-04-03T16:38:54;4.18;;;1.33;;
56726;SDS011;42609;52.700;6.236;2023-04-03T16:41:20;3.40;;;1.35;;
56726;SDS011;42609;52.700;6.236;2023-04-03T16:43:46;3.83;;;1.52;;
56726;SDS011;42609;52.700;6.236;2023-04-03T16:46:11;4.05;;;1.40;;
56726;SDS011;42609;52.700;6.236;2023-04-03T16:48:37;3.67;;;1.20;;
56726;SDS011;42609;52.700;6.236;2023-04-03T16:51:02;3.97;;;1.10;;
56726;SDS011;42609;52.700;6.236;2023-04-03T16:53:28;4.07;;;1.48;;
56726;SDS011;42609;52.700;6.236;2023-04-03T16:55:56;3.95;;;1.52;;
56726;SDS011;42609;52.700;6.236;2023-04-03T16:58:22;3.75;;;1.23;;
56726;SDS011;42609;52.700;6.236;2023-04-03T17:00:48;3.65;;;1.13;;